Time;durP1;ratioP1;P1;durP2;ratioP2;P2;SDS_P1;SDS_P2;PMS_P1;PMS_P2;Temp;Humidity;BMP_temperature;BMP_pressure;BME280_temperature;BME280_humidity;BME280_pressure;Samples;Min_cycle;Max_cycle;Signal;HPM_P1;HPM_P2
2022/11/26 00:00:24;;;;;;;9.05;4.68;;;;;;;-2.64;76.50;100861.38;5032482;28;20035;-41
2022/11/26 00:02:51;;;;;;;10.95;5.10;;;;;;;-2.69;76.66;100863.75;5030484;28;20132;-40
2022/11/26 00:05:17;;;;;;;10.82;4.85;;;;;;;-2.64;76.62;100861.38;5030117;28;20517;-42
2022/11/26 00:07:50;;;;;;;8.05;4.38;;;;;;;-2.66;76.84;100866.41;5032190;28;20041;-43
2022/11/26 00:10:20;;;;;;;8.95;5.15;;;;;;;-2.64;76.84;100857.16;5030339;28;20417;-41
2022/11/26 00:12:45;;;;;;;;;;;;;;;-2.61;76.85;100864.00;5032149;28;20084;-41
2022/11/26 00:15:30;;;;;;;10.98;5.28;;;;;;;-3.06;76.69;100802.97;5030212;28;19968;-41
2022/11/26 00:17:56;;;;;;;9.52;4.70;;;;;;;-2.97;76.62;100817.69;5012537;28;20052;-40
2022/11/26 00:20:27;;;;;;;10.13;4.95;;;;;;;-2.69;76.73;100866.28;5011200;28;20091;-40
2022/11/26 00:22:55;;;;;;;10.43;5.55;;;;;;;-2.65;77.00;100865.59;5013562;28;20092;-42
2022/11/26 00:25:23;;;;;;;9.02;4.32;;;;;;;-2.64;76.88;100863.91;5030118;28;20521;-41
2022/11/26 00:27:51;;;;;;;12.40;5.07;;;;;;;-2.69;76.71;100870.50;5013830;28;20045;-40
2022/11/26 00:30:26;;;;;;;9.02;5.43;;;;;;;-2.62;76.95;100872.50;5030333;28;20576;-43
2022/11/26 00:32:54;;;;;;;7.05;4.10;;;;;;;-2.57;76.91;100873.53;5011844;28;20510;-41
2022/11/26 00:35:20;;;;;;;7.88;4.25;;;;;;;-2.56;76.88;100875.22;5024515;28;20037;-44
2022/11/26 00:37:52;;;;;;;8.75;4.82;;;;;;;-2.57;76.71;100869.31;5009480;28;20046;-42
2022/11/26 00:40:19;;;;;;;9.55;4.78;;;;;;;-2.61;76.57;100872.53;5026142;28;20049;-42
2022/11/26 00:42:45;;;;;;;9.40;5.40;;;;;;;-2.59;76.76;100875.13;5010559;28;20063;-43
2022/11/26 00:45:15;;;;;;;10.32;5.10;;;;;;;-2.60;76.79;100871.72;5012600;28;20057;-40
2022/11/26 00:47:41;;;;;;;12.48;5.32;;;;;;;-2.61;76.98;100874.19;4993948;28;20061;-40
2022/11/26 00:50:13;;;;;;;10.45;5.32;;;;;;;-2.56;76.78;100882.88;5026818;28;20058;-41
2022/11/26 00:52:40;;;;;;;9.00;4.85;;;;;;;-2.60;76.82;100879.34;5025183;28;20038;-40
2022/11/26 00:55:12;;;;;;;8.68;4.80;;;;;;;-2.64;76.99;100874.97;5030599;28;20410;-42
2022/11/26 00:57:41;;;;;;;9.95;4.90;;;;;;;-2.71;76.96;100872.13;5014022;28;20497;-41
2022/11/26 01:00:18;;;;;;;8.03;4.43;;;;;;;-2.75;77.06;100883.00;5029875;28;20061;-41
2022/11/26 01:02:43;;;;;;;8.77;4.90;;;;;;;-2.77;77.12;100880.38;5029536;28;20073;-41
2022/11/26 01:05:12;;;;;;;9.02;4.95;;;;;;;-2.75;77.21;100883.88;5029014;28;20532;-41
2022/11/26 01:07:39;;;;;;;10.07;5.55;;;;;;;-2.77;77.09;100880.38;5012145;28;20136;-40
2022/11/26 01:10:05;;;;;;;11.45;5.28;;;;;;;-2.73;77.32;100874.63;5029893;28;20052;-40
2022/11/26 01:12:32;;;;;;;9.30;4.75;;;;;;;-2.65;77.00;100882.53;5013552;28;20417;-42
2022/11/26 01:14:58;;;;;;;9.68;5.07;;;;;;;-2.65;77.30;100885.06;5046255;28;20147;-42
2022/11/26 01:17:27;;;;;;;9.98;5.47;;;;;;;-2.63;77.08;100881.78;5009473;28;20191;-41
2022/11/26 01:19:52;;;;;;;11.55;5.05;;;;;;;-2.68;77.40;100865.50;4995584;28;20144;-41
2022/11/26 01:22:21;;;;;;;11.75;5.47;;;;;;;-2.57;77.29;100883.72;5028976;28;20130;-41
2022/11/26 01:24:50;;;;;;;9.38;4.97;;;;;;;-2.59;77.20;100872.59;5028650;28;20160;-41
2022/11/26 01:27:17;;;;;;;11.00;4.88;;;;;;;-2.62;77.06;100892.84;5028577;28;20139;-42
2022/11/26 01:29:43;;;;;;;10.38;5.43;;;;;;;-2.87;77.20;100863.03;4995988;28;20038;-41
2022/11/26 01:32:10;;;;;;;10.63;5.13;;;;;;;-2.91;77.41;100850.16;5011853;28;20501;-40
2022/11/26 01:34:37;;;;;;;9.80;4.70;;;;;;;-2.67;77.43;100885.00;5014235;28;20052;-40
2022/11/26 01:37:10;;;;;;;11.30;5.45;;;;;;;-2.68;77.33;100883.31;5028254;28;20037;-41
2022/11/26 01:39:36;;;;;;;10.05;4.70;;;;;;;-2.69;77.14;100876.47;5012715;28;20516;-42
2022/11/26 01:42:41;;;;;;;10.77;5.05;;;;;;;-2.83;77.64;100864.91;5031344;28;20090;-41
2022/11/26 01:45:18;;;;;;;11.80;5.10;;;;;;;-2.72;77.22;100881.44;4995781;28;20136;-41
2022/11/26 01:47:48;;;;;;;8.80;4.30;;;;;;;-2.94;76.96;100858.53;5028495;28;20091;-41
2022/11/26 01:50:27;;;;;;;8.07;4.80;;;;;;;-2.72;77.54;100896.69;5028475;28;20128;-41
2022/11/26 01:52:56;;;;;;;9.70;4.65;;;;;;;-2.73;77.17;100894.13;5029648;28;20460;-43
2022/11/26 01:55:22;;;;;;;9.23;4.63;;;;;;;-2.73;77.49;100883.94;5029781;28;20091;-41
2022/11/26 01:57:49;;;;;;;12.40;5.65;;;;;;;-2.69;77.46;100888.31;5028988;28;20497;-41
2022/11/26 02:00:15;;;;;;;10.35;5.10;;;;;;;-2.68;77.80;100875.66;5028446;28;20049;-40
2022/11/26 02:02:42;;;;;;;8.80;5.03;;;;;;;-2.68;77.41;100873.13;5012278;28;20700;-42
2022/11/26 02:05:13;;;;;;;10.50;4.50;;;;;;;-2.71;77.37;100872.13;5028408;28;20127;-41
2022/11/26 02:07:39;;;;;;;10.10;4.55;;;;;;;-2.72;77.36;100870.41;5011641;28;20045;-41
2022/11/26 02:10:06;;;;;;;10.57;5.65;;;;;;;-2.75;77.59;100875.38;5029919;28;20140;-41
2022/11/26 02:12:32;;;;;;;9.32;5.15;;;;;;;-2.91;77.68;100857.78;5028319;28;20084;-41
2022/11/26 02:14:58;;;;;;;9.55;4.68;;;;;;;-2.77;77.62;100892.25;5027739;28;20045;-40
2022/11/26 02:17:30;;;;;;;8.57;4.50;;;;;;;-2.79;77.43;100893.88;5027691;28;20041;-42
2022/11/26 02:20:24;;;;;;;10.85;5.18;;;;;;;-2.84;77.63;100888.63;5035182;28;20041;-41
2022/11/26 02:22:49;;;;;;;10.20;4.50;;;;;;;-2.80;77.72;100895.56;5029405;28;20053;-41
2022/11/26 02:25:52;;;;;;;10.50;4.90;;;;;;;-2.78;77.57;100895.63;5029329;28;20053;-40
2022/11/26 02:28:58;;;;;;;7.85;4.28;;;;;;;-2.80;77.97;100893.00;5029285;28;20040;-43
2022/11/26 02:31:32;;;;;;;8.73;4.40;;;;;;;-2.79;77.74;100894.75;5028365;28;20041;-43
2022/11/26 02:34:12;;;;;;;9.43;4.65;;;;;;;-2.75;77.65;100895.72;5027784;28;20518;-43
2022/11/26 02:36:44;;;;;;;7.25;4.65;;;;;;;-2.74;77.73;100898.34;5028399;28;20045;-41
2022/11/26 02:39:15;;;;;;;7.72;3.90;;;;;;;-2.72;77.56;100901.78;5027846;28;20464;-41
2022/11/26 02:41:43;;;;;;;8.02;4.80;;;;;;;-2.69;77.50;100906.16;5028195;28;20132;-43
2022/11/26 02:44:10;;;;;;;7.35;4.53;;;;;;;-2.67;77.61;100905.38;5027545;28;20041;-41
2022/11/26 02:46:38;;;;;;;8.65;4.13;;;;;;;-2.65;77.31;100905.44;5029454;28;20580;-41
2022/11/26 02:49:04;;;;;;;6.95;3.70;;;;;;;-2.67;77.57;100907.09;5027914;28;20080;-41
2022/11/26 02:51:34;;;;;;;7.50;3.72;;;;;;;-2.87;77.34;100880.84;5012076;28;20034;-41
2022/11/26 02:54:00;;;;;;;7.20;3.90;;;;;;;-2.74;77.23;100913.59;5010295;28;20111;-41
2022/11/26 02:56:27;;;;;;;7.40;3.88;;;;;;;-2.74;77.23;100905.97;5011622;28;20037;-41
2022/11/26 02:58:53;;;;;;;10.00;4.05;;;;;;;-2.76;77.53;100907.56;5011262;28;20045;-41
2022/11/26 03:01:28;;;;;;;10.40;4.35;;;;;;;-2.90;77.09;100870.56;5027828;28;20060;-41
2022/11/26 03:03:57;;;;;;;7.75;4.50;;;;;;;-2.78;77.36;100904.13;5011718;28;20072;-42
2022/11/26 03:06:24;;;;;;;7.55;4.22;;;;;;;-2.85;77.10;100909.78;5044822;28;20045;-40
2022/11/26 03:08:53;;;;;;;7.65;4.10;;;;;;;-2.82;77.29;100920.06;5027582;28;20038;-41
2022/11/26 03:11:19;;;;;;;7.55;3.67;;;;;;;-2.81;77.42;100919.25;5027823;28;20084;-40
2022/11/26 03:13:44;;;;;;;6.30;3.75;;;;;;;-2.82;77.35;100919.19;5027700;28;20052;-41
2022/11/26 03:16:10;;;;;;;6.32;3.40;;;;;;;-3.01;77.18;100892.19;5027576;28;20128;-40
2022/11/26 03:18:36;;;;;;;6.10;3.17;;;;;;;-2.85;77.19;100927.59;5030291;28;20045;-44
2022/11/26 03:21:02;;;;;;;4.72;3.20;;;;;;;-2.85;77.07;100922.50;5029189;28;20501;-42
2022/11/26 03:23:28;;;;;;;5.38;3.20;;;;;;;-2.95;76.89;100922.06;5033586;28;20053;-41
2022/11/26 03:25:55;;;;;;;6.60;3.67;;;;;;;-2.92;76.88;100932.34;5010658;28;20049;-41
2022/11/26 03:28:21;;;;;;;5.60;3.15;;;;;;;-2.93;77.21;100933.19;5032335;28;20049;-42
2022/11/26 03:30:59;;;;;;;5.70;3.22;;;;;;;-2.92;77.20;100933.22;5031013;28;20048;-41
2022/11/26 03:33:25;;;;;;;5.53;3.83;;;;;;;-2.90;77.41;100929.09;5015631;28;20460;-42
2022/11/26 03:35:50;;;;;;;4.00;2.67;;;;;;;-2.85;77.55;100935.22;5032342;28;20041;-41
2022/11/26 03:38:17;;;;;;;6.88;3.17;;;;;;;-3.02;77.23;100903.16;5011067;28;20049;-44
2022/11/26 03:40:44;;;;;;;4.90;3.10;;;;;;;-2.81;77.53;100937.06;5030274;28;20056;-42
2022/11/26 03:43:10;;;;;;;6.13;2.97;;;;;;;-2.82;77.16;100940.41;5031874;28;20037;-40
2022/11/26 03:45:35;;;;;;;3.78;2.50;;;;;;;-2.84;77.23;100936.09;5028714;28;20141;-41
2022/11/26 03:48:02;;;;;;;3.80;2.78;;;;;;;-2.85;76.81;100936.91;5031111;28;20175;-41
2022/11/26 03:50:27;;;;;;;4.78;2.75;;;;;;;-2.92;76.87;100932.34;5032188;28;20548;-42
2022/11/26 03:52:53;;;;;;;5.00;2.65;;;;;;;-2.88;77.04;100932.56;5030567;28;20160;-41
2022/11/26 03:55:19;;;;;;;7.30;3.30;;;;;;;-2.94;77.12;100921.28;5031717;28;20045;-41
2022/11/26 03:57:45;;;;;;;5.47;2.85;;;;;;;-2.87;77.16;100936.81;5014333;28;20056;-42
2022/11/26 04:00:11;;;;;;;6.15;2.58;;;;;;;-2.89;76.89;100935.91;5030707;28;20045;-40
2022/11/26 04:02:37;;;;;;;5.50;2.63;;;;;;;-2.95;76.61;100948.38;5014572;28;20045;-41
2022/11/26 04:05:03;;;;;;;8.57;3.40;;;;;;;-3.15;77.15;100913.66;5030637;28;20402;-41
2022/11/26 04:07:28;;;;;;;5.88;3.13;;;;;;;-3.08;77.29;100926.66;5031818;28;20041;-40
2022/11/26 04:09:54;;;;;;;5.45;3.05;;;;;;;-3.11;76.90;100918.06;5031931;28;20052;-43
2022/11/26 04:12:20;;;;;;;5.72;3.22;;;;;;;-2.91;77.24;100942.59;5031959;28;20680;-42
2022/11/26 04:14:46;;;;;;;5.32;3.10;;;;;;;-2.87;77.45;100947.00;5030773;28;20045;-41
2022/11/26 04:17:12;;;;;;;5.72;3.33;;;;;;;-3.02;77.13;100916.75;5032516;28;20099;-40
2022/11/26 04:19:38;;;;;;;5.90;3.60;;;;;;;-3.18;76.91;100886.41;5037292;28;20045;-42
2022/11/26 04:22:04;;;;;;;8.10;3.55;;;;;;;-3.07;77.24;100902.97;5032850;28;20195;-42
2022/11/26 04:24:31;;;;;;;7.25;3.92;;;;;;;-2.88;76.92;100940.19;5014316;28;20045;-40
2022/11/26 04:26:56;;;;;;;5.88;3.15;;;;;;;-2.84;76.97;100951.34;5030267;28;20044;-42
2022/11/26 04:29:22;;;;;;;6.30;3.53;;;;;;;-3.00;77.24;100930.41;5031238;28;20263;-40
2022/11/26 04:31:48;;;;;;;5.30;3.38;;;;;;;-2.84;76.79;100946.28;5030486;28;20510;-40
2022/11/26 04:34:14;;;;;;;8.48;3.58;;;;;;;-2.90;76.88;100953.66;5029495;28;20064;-41
2022/11/26 04:36:39;;;;;;;9.65;3.60;;;;;;;-2.90;76.80;100951.97;5029736;28;20092;-41
2022/11/26 04:39:05;;;;;;;5.57;2.90;;;;;;;-2.93;76.65;100958.63;5028134;28;20064;-41
2022/11/26 04:41:31;;;;;;;6.30;3.13;;;;;;;-2.97;76.86;100954.22;5031563;28;20076;-42
2022/11/26 04:43:57;;;;;;;4.95;2.80;;;;;;;-3.03;76.58;100959.91;5030049;28;20037;-40
2022/11/26 04:46:25;;;;;;;4.60;2.45;;;;;;;-2.99;76.36;100964.34;5013268;28;20094;-40
2022/11/26 04:48:50;;;;;;;4.82;2.65;;;;;;;-3.01;76.12;100959.19;5029004;28;20037;-41
2022/11/26 04:51:16;;;;;;;5.10;2.92;;;;;;;-2.98;76.23;100960.13;5030539;28;20052;-42
2022/11/26 04:53:42;;;;;;;4.35;2.55;;;;;;;-3.03;76.11;100949.75;5030199;28;20052;-41
2022/11/26 04:56:08;;;;;;;3.35;2.35;;;;;;;-3.07;75.78;100956.38;5029262;28;20041;-41
2022/11/26 04:58:34;;;;;;;4.20;2.63;;;;;;;-3.08;75.79;100953.78;5030086;28;20041;-43
2022/11/26 05:01:02;;;;;;;4.90;2.60;;;;;;;-3.06;75.79;100964.91;5030546;28;20083;-41
2022/11/26 05:03:28;;;;;;;4.25;2.05;;;;;;;-3.09;75.35;100952.91;5031070;28;20134;-41
2022/11/26 05:05:55;;;;;;;2.50;1.70;;;;;;;-3.13;75.42;100957.81;5029262;28;20195;-40
2022/11/26 05:08:20;;;;;;;3.08;1.92;;;;;;;-3.17;75.41;100961.91;5030799;28;20074;-41
2022/11/26 05:10:52;;;;;;;3.30;2.05;;;;;;;-3.40;74.87;100926.19;5029557;28;20508;-40
2022/11/26 05:13:19;;;;;;;2.95;1.77;;;;;;;-3.49;74.88;100908.84;5029475;28;20467;-43
2022/11/26 05:15:44;;;;;;;2.83;1.40;;;;;;;-3.20;74.75;100964.34;5012499;28;20104;-41
2022/11/26 05:18:11;;;;;;;3.28;1.73;;;;;;;-3.23;74.60;100959.13;5031824;28;20132;-41
2022/11/26 05:20:37;;;;;;;2.80;1.70;;;;;;;-3.20;74.60;100968.56;5015155;28;20049;-40
2022/11/26 05:23:03;;;;;;;3.17;1.67;;;;;;;-3.20;73.95;100974.50;5030487;28;20052;-41
2022/11/26 05:25:29;;;;;;;2.38;1.55;;;;;;;-3.23;74.16;100970.94;5030085;28;20135;-41
2022/11/26 05:27:54;;;;;;;1.80;1.48;;;;;;;-3.26;74.34;100974.25;5028788;28;20051;-40
2022/11/26 05:30:20;;;;;;;3.42;1.77;;;;;;;-3.30;74.11;100980.03;5044887;28;20037;-42
2022/11/26 05:32:46;;;;;;;3.00;1.85;;;;;;;-3.30;74.02;100977.47;5045766;28;20099;-42
2022/11/26 05:35:12;;;;;;;2.83;1.83;;;;;;;-3.30;73.54;100981.69;5030294;28;20138;-42
2022/11/26 05:37:38;;;;;;;2.80;1.70;;;;;;;-3.44;73.74;100959.09;5032070;28;20075;-41
2022/11/26 05:40:05;;;;;;;2.40;1.73;;;;;;;-3.36;73.90;100981.44;5012282;28;20136;-42
2022/11/26 05:42:31;;;;;;;3.70;2.10;;;;;;;-3.36;74.04;100978.88;5012093;28;20135;-40
2022/11/26 05:44:57;;;;;;;3.90;2.10;;;;;;;-3.32;73.53;100990.91;5028887;28;20053;-40
2022/11/26 05:47:25;;;;;;;4.05;1.98;;;;;;;-3.31;73.45;100992.66;5027280;28;20041;-41
2022/11/26 05:49:50;;;;;;;3.33;2.13;;;;;;;-3.36;73.82;100986.53;5028950;28;20083;-41
2022/11/26 05:52:16;;;;;;;4.43;2.60;;;;;;;-3.37;73.64;100995.81;5012326;28;20452;-41
2022/11/26 05:54:42;;;;;;;6.35;2.28;;;;;;;-3.53;73.45;100966.34;5028645;28;20303;-42
2022/11/26 05:57:09;;;;;;;3.05;1.90;;;;;;;-3.34;73.51;100993.38;5026436;28;20067;-41
2022/11/26 05:59:35;;;;;;;4.22;2.10;;;;;;;-3.37;73.28;101012.75;5028420;28;20049;-41
2022/11/26 06:02:01;;;;;;;5.05;2.53;;;;;;;-3.35;73.81;101011.16;4983922;28;20048;-42
2022/11/26 06:04:27;;;;;;;2.78;2.03;;;;;;;-3.42;73.54;101008.34;5010011;28;20048;-42
2022/11/26 06:06:55;;;;;;;4.07;2.72;;;;;;;-3.42;73.44;101010.88;5019066;28;20531;-40
2022/11/26 06:09:21;;;;;;;3.83;2.30;;;;;;;-3.63;73.84;100984.53;5012975;28;20091;-41
2022/11/26 06:11:49;;;;;;;3.78;2.60;;;;;;;-3.50;73.79;101014.75;5027657;28;20037;-41
2022/11/26 06:14:15;;;;;;;3.80;2.38;;;;;;;-3.47;74.17;101011.47;5029781;28;20084;-40
2022/11/26 06:16:41;;;;;;;5.55;2.28;;;;;;;-3.45;73.86;101014.94;5029091;28;20069;-42
2022/11/26 06:19:07;;;;;;;6.75;2.75;;;;;;;-3.42;74.20;101015.97;5034716;28;20095;-40
2022/11/26 06:21:33;;;;;;;3.45;2.60;;;;;;;-3.37;73.99;101021.25;5044786;28;20045;-41
2022/11/26 06:23:59;;;;;;;4.97;2.95;;;;;;;-3.40;74.02;101018.53;5027254;28;20055;-39
2022/11/26 06:26:26;;;;;;;4.57;2.47;;;;;;;-3.39;73.97;101019.41;4998206;28;20041;-41
2022/11/26 06:28:52;;;;;;;7.53;2.97;;;;;;;-3.36;73.86;101020.44;5037443;28;20415;-41
2022/11/26 06:31:18;;;;;;;9.57;3.45;;;;;;;-3.55;74.10;100987.41;5028205;28;20034;-40
2022/11/26 06:33:43;;;;;;;3.30;2.47;;;;;;;-3.42;74.01;101012.53;5028002;28;20737;-41
2022/11/26 06:36:10;;;;;;;4.90;2.63;;;;;;;-3.59;74.02;100983.00;5027708;28;20037;-41
2022/11/26 06:38:36;;;;;;;4.30;2.58;;;;;;;-3.44;73.80;101015.00;5027798;28;20148;-41
2022/11/26 06:41:04;;;;;;;5.38;2.95;;;;;;;-3.40;74.00;101028.72;5038670;28;20127;-42
2022/11/26 06:43:31;;;;;;;4.57;2.78;;;;;;;-3.37;74.12;101031.41;5009712;28;20045;-41
2022/11/26 06:46:02;;;;;;;5.28;3.08;;;;;;;-3.34;74.09;101033.19;4994527;28;20431;-41
2022/11/26 06:48:28;;;;;;;5.20;2.90;;;;;;;-3.34;73.96;101034.06;5000810;28;20045;-40
2022/11/26 06:50:54;;;;;;;6.07;3.13;;;;;;;-3.56;73.94;100990.75;5006942;28;20553;-41
2022/11/26 06:53:20;;;;;;;5.22;3.25;;;;;;;-3.36;74.28;101037.38;5007253;28;20128;-41
2022/11/26 06:55:45;;;;;;;6.28;2.88;;;;;;;-3.36;73.99;101037.38;5015158;28;20137;-40
2022/11/26 06:58:13;;;;;;;5.93;3.10;;;;;;;-3.40;74.28;101035.50;5042834;28;20045;-40
2022/11/26 07:00:40;;;;;;;5.90;2.95;;;;;;;-3.38;73.94;101034.75;5043885;28;20037;-41
2022/11/26 07:03:06;;;;;;;6.30;3.35;;;;;;;-3.39;73.84;101040.63;5029875;28;20049;-41
2022/11/26 07:05:36;;;;;;;6.32;3.25;;;;;;;-3.34;74.14;101039.16;5032371;28;20508;-41
2022/11/26 07:08:02;;;;;;;6.97;3.58;;;;;;;-3.33;74.19;101048.53;5025053;28;20045;-42
2022/11/26 07:10:28;;;;;;;10.02;3.92;;;;;;;-3.28;74.49;101039.41;5031826;28;20041;-42
2022/11/26 07:12:54;;;;;;;12.10;3.55;;;;;;;-3.23;73.95;101044.69;5032814;28;20722;-41
2022/11/26 07:15:20;;;;;;;6.30;3.45;;;;;;;-3.17;74.15;101044.97;4995407;28;20034;-42
2022/11/26 07:17:46;;;;;;;7.90;3.60;;;;;;;-3.16;74.28;101047.59;5019841;28;20049;-40
2022/11/26 07:20:13;;;;;;;7.05;3.50;;;;;;;-3.16;74.14;101052.66;5037698;28;20045;-41
2022/11/26 07:22:39;;;;;;;6.03;3.45;;;;;;;-3.14;74.09;101043.41;5031520;28;20127;-41
2022/11/26 07:25:05;;;;;;;6.00;3.70;;;;;;;-3.15;73.85;101051.00;5030225;28;20239;-40
2022/11/26 07:27:30;;;;;;;5.63;3.50;;;;;;;-3.13;74.08;101050.25;5029647;28;20047;-41
2022/11/26 07:29:56;;;;;;;8.18;3.58;;;;;;;-3.09;74.06;101049.56;5030665;28;20420;-42
2022/11/26 07:32:22;;;;;;;7.65;4.07;;;;;;;-3.04;73.71;101058.28;5031188;28;20037;-42
2022/11/26 07:34:48;;;;;;;8.52;3.97;;;;;;;-3.05;73.71;101059.09;5029411;28;20093;-40
2022/11/26 07:37:14;;;;;;;8.52;3.80;;;;;;;-3.03;74.14;101059.13;5032016;28;20052;-40
2022/11/26 07:39:39;;;;;;;9.82;4.10;;;;;;;-3.00;74.00;101062.69;5019698;28;20128;-42
2022/11/26 07:42:05;;;;;;;5.28;3.30;;;;;;;-3.05;73.84;101056.53;5014263;28;20041;-41
2022/11/26 07:44:31;;;;;;;7.95;3.85;;;;;;;-3.01;73.51;101055.84;5030746;28;20057;-41
2022/11/26 07:46:58;;;;;;;10.88;4.82;;;;;;;-2.97;73.47;101050.88;5029607;28;20045;-41
2022/11/26 07:49:23;;;;;;;6.05;3.55;;;;;;;-2.97;73.42;101049.22;5025299;28;20038;-41
2022/11/26 07:51:51;;;;;;;6.38;3.38;;;;;;;-2.91;73.64;101054.56;5009079;28;20160;-43
2022/11/26 07:54:16;;;;;;;8.13;3.30;;;;;;;-2.81;73.70;101055.81;5038009;28;20045;-43
2022/11/26 07:56:42;;;;;;;6.50;3.78;;;;;;;-2.78;73.67;101055.94;5002809;28;20064;-42
2022/11/26 07:59:10;;;;;;;7.85;3.55;;;;;;;-2.91;73.00;101035.88;5014615;28;20043;-42
2022/11/26 08:01:36;;;;;;;8.13;3.85;;;;;;;-2.69;73.47;101057.19;5028807;28;20053;-42
2022/11/26 08:04:04;;;;;;;7.40;4.00;;;;;;;-2.63;73.22;101065.06;5031528;28;20037;-42
2022/11/26 08:06:30;;;;;;;7.03;3.45;;;;;;;-2.66;72.99;101052.19;5024080;28;20050;-42
2022/11/26 08:08:58;;;;;;;7.68;4.15;;;;;;;-2.71;73.34;101058.78;5032136;28;20049;-42
2022/11/26 08:11:30;;;;;;;7.93;4.03;;;;;;;-2.87;73.13;101032.63;5031241;28;20061;-43
2022/11/26 08:13:58;;;;;;;7.82;4.03;;;;;;;-2.65;73.07;101059.03;5030236;28;20515;-41
2022/11/26 08:16:24;;;;;;;9.45;4.53;;;;;;;-2.61;73.04;101058.34;5029680;28;20150;-41
2022/11/26 08:18:59;;;;;;;9.90;4.65;;;;;;;-2.54;73.10;101058.59;5035404;28;20040;-40
2022/11/26 08:21:26;;;;;;;5.88;3.85;;;;;;;-2.48;72.78;101056.31;5031105;28;20060;-41
2022/11/26 08:23:52;;;;;;;6.75;3.88;;;;;;;-2.47;72.85;101048.72;5012360;28;20060;-41
2022/11/26 08:26:20;;;;;;;7.65;4.05;;;;;;;-2.67;72.68;101035.19;5031488;28;20043;-42
2022/11/26 08:28:46;;;;;;;8.52;4.15;;;;;;;-2.88;72.64;101011.44;5031616;28;20048;-43
2022/11/26 08:31:14;;;;;;;9.63;4.68;;;;;;;-2.73;72.77;101039.19;5030499;28;20037;-43
2022/11/26 08:33:40;;;;;;;8.10;4.35;;;;;;;-2.57;72.83;101064.44;5013224;28;20037;-41
2022/11/26 08:36:06;;;;;;;7.28;4.00;;;;;;;-2.73;72.75;101037.50;5031730;28;20107;-46
2022/11/26 08:38:34;;;;;;;7.30;4.40;;;;;;;-2.56;72.63;101074.69;5030183;28;20124;-41
2022/11/26 08:41:08;;;;;;;8.95;4.50;;;;;;;-2.60;72.79;101064.31;5028022;28;20543;-41
2022/11/26 08:43:36;;;;;;;8.32;3.97;;;;;;;-2.60;72.73;101061.75;5029774;28;20045;-40
2022/11/26 08:46:04;;;;;;;5.25;3.40;;;;;;;-2.59;72.68;101066.94;5029985;28;20053;-41
2022/11/26 08:48:30;;;;;;;8.18;4.15;;;;;;;-2.59;72.46;101068.59;5031342;28;20186;-40
2022/11/26 08:50:59;;;;;;;7.18;4.20;;;;;;;-2.61;72.63;101068.53;5031594;28;20544;-40
2022/11/26 08:53:30;;;;;;;7.40;4.13;;;;;;;-2.71;72.37;101063.88;5030815;28;20527;-41
2022/11/26 08:56:04;;;;;;;8.57;3.60;;;;;;;-2.68;72.47;101076.75;5031243;28;20582;-42
2022/11/26 08:58:34;;;;;;;6.93;4.07;;;;;;;-2.72;72.39;101064.69;5029421;28;20127;-41
2022/11/26 09:01:11;;;;;;;6.13;3.70;;;;;;;-2.69;72.51;101067.38;5031241;28;20502;-41
2022/11/26 09:03:40;;;;;;;10.55;4.60;;;;;;;-2.83;72.63;101035.41;5030660;28;20041;-41
2022/11/26 09:06:07;;;;;;;9.13;4.55;;;;;;;-2.59;72.12;101061.84;5029467;28;20742;-41
2022/11/26 09:09:11;;;;;;;9.07;4.40;;;;;;;-2.56;72.32;101067.03;5013488;28;20056;-40
2022/11/26 09:11:21;;;;;;;7.95;3.70;;;;;;;-2.58;72.28;101070.34;5045597;28;20464;-41
2022/11/26 09:13:47;;;;;;;8.40;4.00;;;;;;;-2.76;72.32;101033.94;5029235;28;20045;-41
2022/11/26 09:16:13;;;;;;;6.38;3.65;;;;;;;-2.57;72.30;101061.91;5029399;28;20048;-41
2022/11/26 09:18:39;;;;;;;7.05;3.90;;;;;;;-2.54;72.07;101066.22;5034762;28;20060;-43
2022/11/26 09:21:08;;;;;;;7.28;3.75;;;;;;;-2.72;71.87;101028.19;5030106;28;20140;-42
2022/11/26 09:23:34;;;;;;;8.80;4.22;;;;;;;-2.51;72.03;101054.50;5029016;28;20651;-41
2022/11/26 09:26:00;;;;;;;6.85;4.35;;;;;;;-2.46;71.74;101067.44;5026119;28;20042;-41
2022/11/26 09:28:26;;;;;;;8.98;3.85;;;;;;;-2.47;71.56;101069.09;5011838;28;20401;-41
2022/11/26 09:30:59;;;;;;;9.35;4.15;;;;;;;-2.49;71.56;101065.63;5028969;28;20089;-41
2022/11/26 09:33:25;;;;;;;7.47;3.92;;;;;;;-2.56;71.62;101056.84;4998253;28;20049;-42
2022/11/26 09:35:51;;;;;;;7.43;4.15;;;;;;;-2.63;71.23;101054.88;5026819;28;20041;-41
2022/11/26 09:38:17;;;;;;;8.05;3.83;;;;;;;-2.66;71.38;101047.13;5026710;28;20059;-41
2022/11/26 09:40:57;;;;;;;8.27;3.95;;;;;;;-2.44;71.61;101079.41;5028235;28;20048;-42
2022/11/26 09:43:52;;;;;;;6.55;3.90;;;;;;;-2.40;71.84;101085.47;5019042;28;20045;-41
2022/11/26 09:46:24;;;;;;;9.90;4.22;;;;;;;-2.40;71.45;101081.25;5008525;28;20046;-41
2022/11/26 09:48:53;;;;;;;8.70;4.82;;;;;;;-2.52;71.41;101062.97;5029084;28;20124;-41
2022/11/26 09:51:19;;;;;;;8.98;4.28;;;;;;;-2.67;71.32;101034.34;5021289;28;20065;-41
2022/11/26 09:53:48;;;;;;;9.15;4.60;;;;;;;-2.40;71.27;101076.16;5020381;28;20048;-41
2022/11/26 09:56:20;;;;;;;10.60;4.82;;;;;;;-2.46;71.06;101059.78;5019255;28;20033;-42
2022/11/26 09:58:55;;;;;;;10.43;5.20;;;;;;;-2.31;71.04;101075.69;5023943;28;20050;-42
2022/11/26 10:01:24;;;;;;;9.55;4.80;;;;;;;-2.52;71.25;101045.13;5039417;28;20072;-41
2022/11/26 10:03:51;;;;;;;11.07;5.50;;;;;;;-2.62;71.08;101046.41;5021707;28;20069;-41
2022/11/26 10:06:46;;;;;;;9.73;4.80;;;;;;;-2.38;71.20;101078.78;5020607;28;20132;-41
2022/11/26 10:09:32;;;;;;;7.57;4.55;;;;;;;-2.47;71.33;101045.31;5024375;28;20398;-45
2022/11/26 10:12:16;;;;;;;10.80;5.53;;;;;;;-2.30;71.40;101068.06;5020324;28;20409;-42
2022/11/26 10:15:19;;;;;;;11.05;5.03;;;;;;;-2.25;71.27;101070.81;5027345;28;20432;-43
2022/11/26 10:17:58;;;;;;;14.82;5.22;;;;;;;-2.25;71.16;101068.28;4996401;28;20049;-42
2022/11/26 10:20:46;;;;;;;9.63;4.45;;;;;;;-2.26;71.05;101064.84;5044465;28;20535;-42
2022/11/26 10:23:12;;;;;;;10.13;5.25;;;;;;;-2.26;71.15;101067.41;5020554;28;20041;-41
2022/11/26 10:25:45;;;;;;;11.27;5.05;;;;;;;-2.33;70.89;101060.31;5016272;28;20051;-42
2022/11/26 10:28:28;;;;;;;10.45;4.90;;;;;;;-2.32;71.12;101059.53;5028745;28;20033;-45
2022/11/26 10:31:00;;;;;;;9.35;4.72;;;;;;;-2.33;71.16;101067.97;5041974;28;20509;-42
2022/11/26 10:33:34;;;;;;;8.73;4.57;;;;;;;-2.32;71.07;101071.38;5009242;28;20053;-42
2022/11/26 10:36:02;;;;;;;10.60;5.40;;;;;;;-2.23;71.15;101076.81;5028343;28;20041;-43
2022/11/26 10:38:27;;;;;;;11.35;6.28;;;;;;;-2.21;71.05;101072.69;5019485;28;20049;-42
2022/11/26 10:40:53;;;;;;;8.98;4.72;;;;;;;-2.21;70.90;101077.78;5025383;28;20134;-41
2022/11/26 10:43:23;;;;;;;8.95;4.93;;;;;;;-2.20;70.77;101079.50;5025470;28;20038;-41
2022/11/26 10:45:52;;;;;;;8.98;4.57;;;;;;;-2.22;70.89;101076.91;5025699;28;20069;-42
2022/11/26 10:48:30;;;;;;;11.07;4.97;;;;;;;-2.25;71.01;101074.22;5026635;28;20036;-41
2022/11/26 10:50:58;;;;;;;;;;;;;;;-2.26;70.93;101072.50;5026216;28;20041;-42
2022/11/26 10:53:27;;;;;;;8.98;4.80;;;;;;;-2.33;70.83;101080.69;5029014;28;19924;-41
2022/11/26 10:55:56;;;;;;;12.18;4.88;;;;;;;-2.38;70.90;101077.09;5027997;28;20061;-41
2022/11/26 10:58:27;;;;;;;11.77;5.40;;;;;;;-2.38;71.07;101072.00;5027246;28;20081;-40
2022/11/26 11:00:54;;;;;;;11.85;5.45;;;;;;;-2.37;71.10;101080.53;5027051;28;20104;-39
2022/11/26 11:03:23;;;;;;;8.85;4.80;;;;;;;-2.35;71.09;101078.88;5010789;28;20052;-43
2022/11/26 11:05:49;;;;;;;9.10;4.63;;;;;;;-2.53;71.29;101048.47;4993576;28;20123;-41
2022/11/26 11:08:32;;;;;;;10.65;5.32;;;;;;;-2.37;71.17;101077.97;5009908;28;20046;-44
2022/11/26 11:11:02;;;;;;;11.75;6.00;;;;;;;-2.43;71.26;101076.06;5027433;28;20048;-40
2022/11/26 11:13:45;;;;;;;11.32;5.07;;;;;;;-2.43;71.36;101076.06;5025507;28;20128;-41
2022/11/26 11:16:12;;;;;;;8.57;4.88;;;;;;;-2.38;71.25;101078.78;5028800;28;20535;-40
2022/11/26 11:18:47;;;;;;;11.63;5.68;;;;;;;-2.35;71.36;101089.06;5008399;28;20041;-40
2022/11/26 11:21:16;;;;;;;11.05;5.80;;;;;;;-2.34;71.24;101085.72;5024079;28;20033;-40
2022/11/26 11:23:42;;;;;;;8.52;4.88;;;;;;;-2.34;71.12;101088.25;5010495;28;20103;-41
2022/11/26 11:26:22;;;;;;;9.40;5.70;;;;;;;-2.52;71.26;101054.44;5042791;28;20041;-42
2022/11/26 11:28:51;;;;;;;15.00;5.50;;;;;;;-2.54;71.20;101054.38;5026997;28;20042;-43
2022/11/26 11:31:22;;;;;;;12.93;5.63;;;;;;;-2.39;71.18;101077.91;5026901;28;20580;-41